Time;durP1;ratioP1;P1;durP2;ratioP2;P2;SDS_P1;SDS_P2;PMS_P1;PMS_P2;Temp;Humidity;BMP_temperature;BMP_pressure;BME280_temperature;BME280_humidity;BME280_pressure;Samples;Min_cycle;Max_cycle;Signal;HPM_P1;HPM_P2
2023/07/21 00:02:13;;;;;;;14.30;6.35;;;;;;;22.27;54.33;101324.72;5031656;28;20029;-53
2023/07/21 00:04:40;;;;;;;17.92;6.63;;;;;;;22.09;54.59;101319.75;5031847;28;20083;-52
2023/07/21 00:07:06;;;;;;;16.30;6.28;;;;;;;21.97;55.63;101328.19;5031907;28;20017;-50
2023/07/21 00:09:32;;;;;;;16.15;6.22;;;;;;;21.84;56.14;101335.00;5031829;28;20053;-51
2023/07/21 00:11:59;;;;;;;15.98;6.03;;;;;;;21.87;55.95;101333.63;5031604;28;20026;-52
2023/07/21 00:14:26;;;;;;;17.67;6.28;;;;;;;21.55;56.67;101329.19;5031391;28;20099;-51
2023/07/21 00:16:53;;;;;;;21.42;6.10;;;;;;;21.46;57.00;101332.69;5031903;28;20095;-52
2023/07/21 00:19:20;;;;;;;22.40;6.20;;;;;;;21.15;58.18;101321.63;5040612;28;20028;-49
2023/07/21 00:21:47;;;;;;;19.70;6.32;;;;;;;21.22;57.98;101322.22;5050594;28;20029;-53
2023/07/21 00:24:13;;;;;;;17.20;6.65;;;;;;;20.88;58.95;101315.53;5046890;28;20033;-50
2023/07/21 00:26:40;;;;;;;22.73;6.47;;;;;;;20.75;59.87;101316.78;5050088;28;20399;-51
2023/07/21 00:29:06;;;;;;;16.52;5.72;;;;;;;20.52;60.33;101307.09;5051327;28;20029;-49
2023/07/21 00:31:33;;;;;;;18.98;6.25;;;;;;;20.58;60.73;101308.78;5049815;28;20097;-51
2023/07/21 00:33:59;;;;;;;20.10;5.75;;;;;;;20.60;60.39;101303.06;5051066;28;20044;-51
2023/07/21 00:36:25;;;;;;;18.25;6.13;;;;;;;20.42;60.39;101301.56;5051448;28;20108;-51
2023/07/21 00:38:51;;;;;;;19.15;6.60;;;;;;;20.15;60.67;101304.31;5050660;28;20420;-51
2023/07/21 00:41:19;;;;;;;21.50;6.40;;;;;;;20.31;60.68;101306.91;5048964;28;20498;-54
2023/07/21 00:43:46;;;;;;;22.02;6.40;;;;;;;20.06;61.48;101298.56;5049687;28;20555;-50
2023/07/21 00:46:13;;;;;;;17.38;5.55;;;;;;;20.10;60.92;101296.97;5051162;28;20029;-48
2023/07/21 00:48:39;;;;;;;17.50;6.00;;;;;;;19.81;61.81;101295.59;5051044;28;20036;-52
2023/07/21 00:51:06;;;;;;;14.00;5.18;;;;;;;19.96;61.72;101288.41;5050398;28;20116;-55
2023/07/21 00:53:33;;;;;;;20.20;6.18;;;;;;;19.49;63.17;101288.19;5048794;28;20410;-52
2023/07/21 00:56:00;;;;;;;21.73;6.35;;;;;;;19.83;63.04;101288.84;5054605;22;20061;-55
2023/07/21 00:58:26;;;;;;;15.27;5.90;;;;;;;19.64;62.34;101280.19;5034345;28;20030;-56
2023/07/21 01:00:52;;;;;;;20.92;6.40;;;;;;;19.59;63.56;101285.56;5038693;28;20040;-56
2023/07/21 01:03:19;;;;;;;19.08;6.00;;;;;;;19.65;63.47;101281.84;5058417;28;20106;-56
2023/07/21 01:05:52;;;;;;;15.50;5.28;;;;;;;19.59;63.48;101276.63;5071536;28;20363;-56
2023/07/21 01:08:19;;;;;;;27.40;6.75;;;;;;;19.57;63.32;101276.84;5060527;28;20112;-57
2023/07/21 01:10:48;;;;;;;21.45;6.78;;;;;;;19.28;63.43;101276.25;5045231;28;20025;-57
2023/07/21 01:13:17;;;;;;;15.80;6.32;;;;;;;19.23;64.72;101271.56;5060744;28;20439;-56
2023/07/21 01:15:47;;;;;;;21.58;6.47;;;;;;;19.34;64.55;101274.41;5068671;28;20115;-55
2023/07/21 01:18:15;;;;;;;28.95;6.95;;;;;;;19.08;65.23;101276.00;5031662;28;20022;-57
2023/07/21 01:20:43;;;;;;;20.95;5.95;;;;;;;19.19;65.22;101270.44;5031640;28;20098;-56
2023/07/21 01:23:44;;;;;;;22.45;7.03;;;;;;;19.29;64.97;101266.22;5031330;28;20022;-56
2023/07/21 01:26:12;;;;;;;20.77;6.35;;;;;;;19.12;65.69;101266.28;5032209;28;20041;-57
2023/07/21 01:28:41;;;;;;;21.75;6.65;;;;;;;19.16;65.29;101262.00;5031538;28;20057;-62
2023/07/21 01:31:08;;;;;;;24.38;6.28;;;;;;;19.27;65.41;101274.63;5031262;28;20026;-61
2023/07/21 01:33:35;;;;;;;24.02;6.35;;;;;;;19.19;65.69;101266.91;5034723;28;20438;-60
2023/07/21 01:36:03;;;;;;;15.73;6.15;;;;;;;19.01;65.61;101269.94;5036496;28;20026;-61
2023/07/21 01:38:31;;;;;;;15.73;6.10;;;;;;;19.09;65.66;101262.16;5038931;28;20033;-58
2023/07/21 01:40:58;;;;;;;22.15;6.22;;;;;;;18.99;67.26;101262.88;5049815;28;20551;-58
2023/07/21 01:43:25;;;;;;;21.67;7.00;;;;;;;18.96;67.05;101263.38;5034330;28;20053;-58
2023/07/21 01:45:51;;;;;;;25.55;7.32;;;;;;;18.90;67.26;101269.81;5039111;28;20493;-58
2023/07/21 01:48:17;;;;;;;22.27;7.00;;;;;;;18.73;66.90;101269.84;5053167;28;20486;-58
2023/07/21 01:50:46;;;;;;;18.17;6.20;;;;;;;18.69;68.53;101270.59;5054189;28;20044;-58
2023/07/21 01:53:19;;;;;;;25.05;6.70;;;;;;;18.32;68.49;101281.94;5048976;28;20021;-58
2023/07/21 01:56:09;;;;;;;20.02;6.50;;;;;;;18.08;69.20;101286.69;5034217;28;20125;-58
2023/07/21 01:58:38;;;;;;;22.70;7.15;;;;;;;18.27;68.54;101276.44;5034777;28;20030;-58
2023/07/21 02:01:06;;;;;;;19.40;6.50;;;;;;;18.38;68.34;101274.72;5034214;28;20499;-58
2023/07/21 02:03:34;;;;;;;19.92;6.53;;;;;;;18.61;68.01;101277.22;5034059;28;20032;-58
2023/07/21 02:06:00;;;;;;;23.20;6.75;;;;;;;18.55;68.09;101277.41;5034202;28;20021;-58
2023/07/21 02:08:26;;;;;;;22.75;5.63;;;;;;;18.81;66.76;101279.44;5034156;28;20139;-58
2023/07/21 02:10:53;;;;;;;18.38;6.40;;;;;;;18.86;66.60;101281.41;5034479;28;20500;-58
2023/07/21 02:13:19;;;;;;;24.20;6.35;;;;;;;19.01;65.91;101281.59;5033900;28;20033;-58
2023/07/21 02:15:47;;;;;;;18.38;6.35;;;;;;;19.07;64.94;101280.59;5033941;28;20033;-58
2023/07/21 02:18:14;;;;;;;21.80;6.88;;;;;;;19.43;64.00;101291.88;5041668;28;20176;-56
2023/07/21 02:20:40;;;;;;;21.88;6.78;;;;;;;19.44;63.78;101291.66;5052305;28;20055;-57
2023/07/21 02:23:06;;;;;;;21.65;6.30;;;;;;;19.51;63.64;101281.41;5052904;28;20025;-57
2023/07/21 02:25:33;;;;;;;20.58;6.88;;;;;;;19.65;62.61;101289.16;5045916;28;20044;-57
2023/07/21 02:27:59;;;;;;;15.55;6.22;;;;;;;19.68;62.96;101286.78;5054131;28;20463;-56
2023/07/21 02:30:27;;;;;;;14.00;6.93;;;;;;;19.93;62.16;101285.38;5053911;28;20039;-57
2023/07/21 02:32:53;;;;;;;20.60;6.38;;;;;;;20.03;61.10;101280.84;5053668;28;20032;-57
2023/07/21 02:35:19;;;;;;;21.08;6.68;;;;;;;19.81;62.27;101284.72;5053603;28;20048;-57
2023/07/21 02:37:45;;;;;;;20.30;6.18;;;;;;;19.63;63.07;101297.56;5053839;28;20021;-56
2023/07/21 02:40:12;;;;;;;19.05;6.53;;;;;;;19.54;62.69;101285.47;5053877;28;20025;-57
2023/07/21 02:42:38;;;;;;;17.23;5.93;;;;;;;19.53;62.76;101276.53;5053548;28;20375;-57
2023/07/21 02:45:05;;;;;;;18.48;7.15;;;;;;;19.04;64.21;101281.09;5020929;28;20029;-57
2023/07/21 02:47:31;;;;;;;21.25;6.65;;;;;;;19.06;65.16;101278.97;5049125;28;20060;-56
2023/07/21 02:49:58;;;;;;;21.95;6.88;;;;;;;18.77;66.11;101270.16;5073836;28;20028;-57
2023/07/21 02:52:27;;;;;;;20.23;7.00;;;;;;;18.41;67.54;101271.50;5062329;28;20078;-57
2023/07/21 02:54:53;;;;;;;22.42;7.15;;;;;;;17.99;68.70;101268.34;5060980;23;20033;-57
2023/07/21 02:57:20;;;;;;;27.88;7.60;;;;;;;17.79;69.88;101274.25;5073571;28;20394;-57
2023/07/21 02:59:46;;;;;;;28.67;7.47;;;;;;;17.72;70.66;101279.81;5068104;28;20063;-56
2023/07/21 03:02:13;;;;;;;21.08;7.00;;;;;;;17.48;70.99;101278.22;5052967;28;20075;-56
2023/07/21 03:04:42;;;;;;;24.25;7.10;;;;;;;17.14;72.39;101286.22;5055751;28;20053;-57
2023/07/21 03:07:08;;;;;;;21.58;6.97;;;;;;;17.31;72.45;101281.69;5052739;28;20033;-57
2023/07/21 03:09:35;;;;;;;22.52;7.72;;;;;;;17.02;73.42;101280.81;5077681;28;20428;-56
2023/07/21 03:12:02;;;;;;;22.35;7.60;;;;;;;17.02;73.74;101285.41;5052880;28;20032;-56
2023/07/21 03:14:29;;;;;;;23.02;7.35;;;;;;;17.01;73.83;101294.59;5052906;28;20033;-56
2023/07/21 03:16:55;;;;;;;20.20;7.82;;;;;;;17.05;73.54;101299.28;5053063;28;20025;-56
2023/07/21 03:19:21;;;;;;;24.23;7.80;;;;;;;16.80;74.65;101294.13;5062279;28;20477;-56
2023/07/21 03:21:49;;;;;;;20.23;7.38;;;;;;;16.64;75.57;101286.69;5072537;28;20051;-56
2023/07/21 03:24:16;;;;;;;25.40;8.25;;;;;;;16.64;75.69;101282.13;5052388;28;20017;-56
2023/07/21 03:26:42;;;;;;;30.10;8.20;;;;;;;16.47;76.32;101275.78;5078035;28;20111;-57
2023/07/21 03:29:08;;;;;;;28.33;7.97;;;;;;;16.37;76.87;101286.34;5092829;28;20027;-56
2023/07/21 03:31:35;;;;;;;26.23;8.65;;;;;;;16.42;76.65;101275.66;5092105;28;20031;-56
2023/07/21 03:34:01;;;;;;;26.92;7.15;;;;;;;16.27;77.52;101269.91;5074504;28;20047;-56
2023/07/21 03:36:27;;;;;;;21.65;7.35;;;;;;;16.34;76.72;101276.00;5072204;28;20066;-56
2023/07/21 03:38:54;;;;;;;27.20;8.23;;;;;;;16.03;78.27;101272.53;5072408;28;20028;-56
2023/07/21 03:41:21;;;;;;;23.90;8.82;;;;;;;16.08;78.51;101271.84;5054493;28;20079;-56
2023/07/21 03:43:49;;;;;;;25.70;8.50;;;;;;;15.92;79.28;101262.53;5079057;28;20107;-56
2023/07/21 03:46:16;;;;;;;26.45;8.80;;;;;;;15.77;79.70;101265.69;5092622;28;20032;-56
2023/07/21 03:48:43;;;;;;;20.15;7.90;;;;;;;15.89;79.12;101273.00;5092351;28;20024;-56
2023/07/21 03:51:09;;;;;;;27.20;8.23;;;;;;;15.87;79.12;101266.97;5092374;28;20027;-56
2023/07/21 03:53:35;;;;;;;21.08;8.80;;;;;;;15.82;79.34;101262.28;5091919;28;20058;-56
2023/07/21 03:56:01;;;;;;;24.90;8.10;;;;;;;15.69;80.24;101260.59;5091900;28;20085;-56
2023/07/21 03:58:27;;;;;;;26.88;8.27;;;;;;;15.67;80.53;101272.69;5090624;28;20020;-56
2023/07/21 04:00:55;;;;;;;25.10;8.43;;;;;;;15.62;80.70;101264.41;5066862;28;20036;-56
2023/07/21 04:03:24;;;;;;;26.05;9.25;;;;;;;15.65;80.62;101272.06;5071691;28;20046;-56
2023/07/21 04:05:52;;;;;;;22.23;7.90;;;;;;;15.72;80.22;101276.34;5071780;28;20033;-56
2023/07/21 04:08:18;;;;;;;21.98;8.80;;;;;;;15.72;80.24;101264.72;5069602;28;20051;-56
2023/07/21 04:10:45;;;;;;;22.45;8.60;;;;;;;15.70;80.10;101273.03;5071815;28;20159;-56
2023/07/21 04:13:11;;;;;;;24.75;9.05;;;;;;;15.54;80.63;101262.84;5071741;28;20029;-56
2023/07/21 04:15:38;;;;;;;25.20;8.50;;;;;;;15.59;80.38;101277.28;5078043;28;20016;-56
2023/07/21 04:18:04;;;;;;;21.65;8.25;;;;;;;15.51;80.78;101274.13;5085244;28;20032;-56
2023/07/21 04:20:31;;;;;;;22.10;8.30;;;;;;;15.60;80.47;101272.72;5072058;28;20359;-56
2023/07/21 04:22:58;;;;;;;23.65;8.07;;;;;;;15.66;80.32;101276.44;5063580;28;20031;-56
2023/07/21 04:25:24;;;;;;;21.10;8.20;;;;;;;15.76;79.88;101265.91;5071899;28;20070;-56
2023/07/21 04:27:54;;;;;;;20.23;8.00;;;;;;;15.71;80.07;101284.66;5071653;28;20027;-56
2023/07/21 04:30:21;;;;;;;28.48;8.52;;;;;;;15.71;80.42;101276.56;5071645;28;20089;-56
2023/07/21 04:32:47;;;;;;;28.52;8.50;;;;;;;15.67;80.71;101284.31;5071122;28;20020;-56
2023/07/21 04:35:16;;;;;;;25.80;8.55;;;;;;;15.65;80.76;101285.56;5072076;28;20060;-56
2023/07/21 04:37:42;;;;;;;22.67;8.30;;;;;;;15.51;81.15;101277.63;5091773;28;20028;-56
2023/07/21 04:40:08;;;;;;;28.48;8.95;;;;;;;15.56;81.07;101283.16;5091588;28;20063;-56
2023/07/21 04:42:35;;;;;;;24.35;9.02;;;;;;;15.62;80.71;101286.81;5091464;28;20020;-56
2023/07/21 04:45:01;;;;;;;25.60;7.85;;;;;;;15.71;80.64;101287.34;5091323;28;20020;-56
2023/07/21 04:47:27;;;;;;;31.02;8.70;;;;;;;15.63;80.89;101282.28;5076735;28;20040;-56
2023/07/21 04:49:53;;;;;;;26.98;9.48;;;;;;;15.58;81.25;101291.84;5071341;28;20024;-56
2023/07/21 04:52:21;;;;;;;27.70;8.95;;;;;;;15.59;80.78;101289.97;5071037;28;20056;-55
2023/07/21 04:54:48;;;;;;;28.10;9.15;;;;;;;15.48;81.55;101290.75;5071407;28;20082;-56
2023/07/21 04:57:14;;;;;;;31.25;9.35;;;;;;;15.44;81.91;101297.66;5071548;28;20095;-56
2023/07/21 04:59:43;;;;;;;28.10;9.05;;;;;;;15.37;82.16;101294.19;5060363;28;20466;-56
2023/07/21 05:02:09;;;;;;;23.77;8.77;;;;;;;15.53;81.50;101293.59;5061428;28;20040;-49
2023/07/21 05:04:35;;;;;;;27.67;8.80;;;;;;;15.47;81.85;101294.50;5070934;28;20028;-54
2023/07/21 05:07:02;;;;;;;20.52;8.80;;;;;;;15.47;82.40;101289.91;5071899;28;20287;-53
2023/07/21 05:09:29;;;;;;;29.45;10.02;;;;;;;15.44;82.42;101298.47;5090058;28;20170;-53
2023/07/21 05:11:55;;;;;;;26.38;8.60;;;;;;;15.39;83.18;101300.22;5095159;28;20052;-54
2023/07/21 05:14:22;;;;;;;28.33;9.15;;;;;;;15.44;83.30;101293.09;5092950;28;20031;-56
2023/07/21 05:16:48;;;;;;;25.73;8.80;;;;;;;15.37;83.35;101297.72;5074412;28;20092;-56
2023/07/21 05:19:14;;;;;;;26.63;9.02;;;;;;;15.42;83.36;101300.56;5074908;28;20169;-56
2023/07/21 05:21:40;;;;;;;28.75;9.55;;;;;;;15.38;83.21;101293.16;5074584;28;20862;-56
2023/07/21 05:24:07;;;;;;;26.23;8.75;;;;;;;15.52;82.76;101305.44;5074595;28;20063;-56
2023/07/21 05:26:36;;;;;;;25.65;9.40;;;;;;;15.45;82.95;101308.22;5074801;28;20115;-56
2023/07/21 05:29:03;;;;;;;30.42;9.40;;;;;;;15.42;82.58;101307.84;5074594;28;20033;-56
2023/07/21 05:31:30;;;;;;;24.98;9.02;;;;;;;15.42;82.63;101308.66;5056675;28;20567;-56
2023/07/21 05:33:57;;;;;;;21.00;8.82;;;;;;;15.43;82.78;101309.47;5072310;28;20398;-56
2023/07/21 05:36:24;;;;;;;29.60;8.32;;;;;;;15.43;82.75;101304.09;5074351;28;20067;-56
2023/07/21 05:38:51;;;;;;;19.77;9.30;;;;;;;15.32;83.07;101301.13;5072986;28;20458;-56
2023/07/21 05:41:18;;;;;;;21.17;8.63;;;;;;;15.26;83.40;101303.88;5073331;28;20462;-56
2023/07/21 05:43:45;;;;;;;23.40;8.45;;;;;;;15.22;83.57;101289.22;5074621;28;20469;-56
2023/07/21 05:46:12;;;;;;;33.58;9.10;;;;;;;15.16;83.93;101293.63;5074162;28;20151;-56
2023/07/21 05:48:38;;;;;;;18.70;8.68;;;;;;;15.24;83.76;101292.50;5074411;28;20414;-56
2023/07/21 05:51:04;;;;;;;24.75;8.25;;;;;;;15.17;84.19;101278.28;5074454;28;20029;-56
2023/07/21 05:53:31;;;;;;;27.75;9.50;;;;;;;15.18;84.26;101286.13;5073907;28;20021;-56
2023/07/21 05:55:57;;;;;;;25.30;9.30;;;;;;;15.09;84.84;101298.25;5074327;28;20067;-56
2023/07/21 05:58:23;;;;;;;32.20;10.25;;;;;;;14.91;85.82;101288.31;5071831;28;20495;-56
2023/07/21 06:00:50;;;;;;;26.80;9.23;;;;;;;14.97;86.15;101291.97;5054286;28;20805;-55
2023/07/21 06:03:17;;;;;;;33.50;10.43;;;;;;;14.96;86.26;101291.16;5053888;28;20378;-55
2023/07/21 06:05:44;;;;;;;24.08;8.40;;;;;;;15.08;85.53;101298.50;5053930;28;20033;-56
2023/07/21 06:08:10;;;;;;;28.45;9.68;;;;;;;15.03;85.89;101293.75;5082742;28;20454;-56
2023/07/21 06:10:38;;;;;;;32.10;10.15;;;;;;;15.09;85.45;101295.56;5094144;28;20484;-55
2023/07/21 06:13:06;;;;;;;30.17;9.77;;;;;;;15.05;85.93;101294.38;5085956;28;20474;-56
2023/07/21 06:15:32;;;;;;;33.00;9.77;;;;;;;15.00;86.09;101297.75;5057875;28;20031;-56
2023/07/21 06:17:58;;;;;;;26.52;9.75;;;;;;;15.08;85.71;101298.50;5080744;28;20040;-56
2023/07/21 06:20:24;;;;;;;27.65;9.63;;;;;;;15.03;85.58;101299.97;5073006;28;20070;-55
2023/07/21 06:22:52;;;;;;;28.80;9.07;;;;;;;15.09;85.09;101300.94;5073653;28;20031;-56
2023/07/21 06:25:18;;;;;;;35.25;10.35;;;;;;;15.05;85.42;101297.91;5073443;28;20025;-56
2023/07/21 06:27:47;;;;;;;25.92;9.95;;;;;;;15.04;85.27;101293.53;5073839;28;20040;-56
2023/07/21 06:30:13;;;;;;;22.73;8.95;;;;;;;14.96;85.28;101287.63;5073723;28;20469;-56
2023/07/21 06:32:43;;;;;;;32.70;10.30;;;;;;;14.93;85.49;101296.16;5071980;28;20031;-56
2023/07/21 06:35:10;;;;;;;32.63;9.40;;;;;;;14.73;87.11;101293.69;5073297;28;20069;-56
2023/07/21 06:37:39;;;;;;;31.35;10.25;;;;;;;14.78;86.65;101291.97;5073527;28;20048;-55
2023/07/21 06:40:09;;;;;;;20.77;9.25;;;;;;;14.78;86.66;101291.97;5073682;28;20020;-55
2023/07/21 06:42:36;;;;;;;26.75;8.95;;;;;;;14.80;86.44;101289.03;5073151;28;20447;-55
2023/07/21 06:45:02;;;;;;;27.35;9.32;;;;;;;14.74;86.67;101284.53;5073382;28;20612;-56
2023/07/21 06:47:29;;;;;;;35.97;9.88;;;;;;;14.83;86.23;101288.59;5073069;28;20032;-56
2023/07/21 06:49:55;;;;;;;27.65;9.95;;;;;;;14.73;86.89;101289.09;5073305;28;20013;-56
2023/07/21 06:52:21;;;;;;;32.15;9.60;;;;;;;14.70;87.19;101288.72;5070646;28;20070;-56
2023/07/21 06:54:49;;;;;;;25.45;8.88;;;;;;;14.69;87.15;101289.78;5072850;28;20028;-55
2023/07/21 06:57:15;;;;;;;27.42;8.73;;;;;;;14.58;87.38;101288.63;5073543;28;20048;-55
2023/07/21 06:59:41;;;;;;;25.98;9.68;;;;;;;14.66;87.33;101288.34;5054626;28;20044;-55
2023/07/21 07:02:09;;;;;;;30.20;10.40;;;;;;;14.57;87.80;101286.16;5052766;28;20090;-55
2023/07/21 07:04:35;;;;;;;29.33;9.07;;;;;;;14.42;88.27;101291.84;5052816;28;20430;-55
2023/07/21 07:07:02;;;;;;;25.83;10.10;;;;;;;14.49;88.23;101282.72;5069607;28;20070;-55
2023/07/21 07:09:28;;;;;;;25.90;9.85;;;;;;;14.45;88.41;101280.66;5073014;28;20024;-55
2023/07/21 07:11:54;;;;;;;27.85;9.43;;;;;;;14.43;88.56;101277.34;5089757;28;20028;-55
2023/07/21 07:14:20;;;;;;;23.52;9.15;;;;;;;14.49;88.33;101279.16;5093235;28;20050;-55
2023/07/21 07:16:47;;;;;;;31.40;9.52;;;;;;;14.50;88.42;101283.53;5092755;28;20027;-55
2023/07/21 07:19:13;;;;;;;25.73;8.48;;;;;;;14.51;88.10;101283.31;5092949;28;20035;-54
2023/07/21 07:21:39;;;;;;;32.25;10.48;;;;;;;14.30;89.42;101278.28;5092505;28;20500;-56
2023/07/21 07:24:06;;;;;;;35.00;9.45;;;;;;;14.43;88.81;101272.75;5092838;28;20516;-54
2023/07/21 07:26:32;;;;;;;26.40;8.63;;;;;;;14.43;88.98;101272.75;5084532;28;20073;-55
2023/07/21 07:28:59;;;;;;;29.88;9.55;;;;;;;14.41;88.94;101269.47;5092365;28;20430;-55
2023/07/21 07:31:25;;;;;;;32.15;10.32;;;;;;;14.40;89.06;101267.84;5091853;28;20020;-55
2023/07/21 07:33:53;;;;;;;23.65;9.25;;;;;;;14.43;89.03;101267.38;5092615;28;20600;-54
2023/07/21 07:36:19;;;;;;;30.00;10.18;;;;;;;14.43;88.83;101264.69;5092494;28;20089;-53
2023/07/21 07:38:46;;;;;;;24.52;8.85;;;;;;;14.39;89.04;101266.19;5078231;28;20478;-55
2023/07/21 07:41:12;;;;;;;27.13;10.40;;;;;;;14.39;89.14;101265.38;5071909;28;20103;-55
2023/07/21 07:43:38;;;;;;;23.25;8.30;;;;;;;14.40;89.16;101261.63;5083305;28;20103;-55
2023/07/21 07:46:08;;;;;;;30.98;9.15;;;;;;;14.51;88.50;101269.84;5089728;28;20030;-55
2023/07/21 07:48:35;;;;;;;24.83;9.20;;;;;;;14.46;88.59;101263.44;5082647;28;20397;-55
2023/07/21 07:51:06;;;;;;;28.10;9.63;;;;;;;14.48;88.44;101262.19;5072121;28;20023;-55
2023/07/21 07:53:34;;;;;;;25.20;8.90;;;;;;;14.28;89.79;101258.84;5072347;28;20530;-55
2023/07/21 07:56:00;;;;;;;30.35;9.48;;;;;;;14.42;89.25;101262.22;5071706;28;20052;-55
2023/07/21 07:58:26;;;;;;;28.95;9.63;;;;;;;14.42;88.85;101260.34;5063541;28;20021;-55
2023/07/21 08:00:59;;;;;;;30.95;9.48;;;;;;;14.50;88.80;101257.41;5052054;28;20056;-55
2023/07/21 08:03:26;;;;;;;26.60;9.05;;;;;;;14.42;88.83;101260.34;5055307;28;20036;-55
2023/07/21 08:05:52;;;;;;;36.58;9.85;;;;;;;14.37;89.27;101257.50;5071676;28;20097;-56
2023/07/21 08:08:21;;;;;;;27.30;9.00;;;;;;;14.46;88.58;101258.06;5071793;28;20028;-55
2023/07/21 08:10:48;;;;;;;24.00;8.38;;;;;;;14.35;89.22;101254.22;5072032;28;20020;-55
2023/07/21 08:13:14;;;;;;;29.65;9.80;;;;;;;14.44;88.75;101260.16;5071603;28;20032;-56
2023/07/21 08:15:45;;;;;;;29.27;8.68;;;;;;;14.46;88.93;101256.19;5071706;28;20029;-55
2023/07/21 08:18:12;;;;;;;23.88;8.82;;;;;;;14.37;89.07;101256.66;5077427;28;20051;-56
2023/07/21 08:20:39;;;;;;;30.35;9.93;;;;;;;14.37;89.26;101257.50;5091880;28;20063;-56
2023/07/21 08:23:06;;;;;;;23.52;8.80;;;;;;;14.37;89.58;101256.66;5091903;28;20490;-56
2023/07/21 08:25:32;;;;;;;28.30;9.60;;;;;;;14.30;89.73;101253.22;5075345;28;20047;-56
2023/07/21 08:28:03;;;;;;;31.25;8.40;;;;;;;14.38;89.61;101251.09;5076609;28;20573;-56
2023/07/21 08:30:32;;;;;;;30.77;9.68;;;;;;;14.18;90.56;101243.16;5091923;28;20093;-56
2023/07/21 08:32:58;;;;;;;28.27;10.50;;;;;;;14.24;90.30;101236.91;5091591;28;20031;-56
2023/07/21 08:35:27;;;;;;;26.70;9.32;;;;;;;14.23;90.64;101242.50;5091999;28;20058;-55
2023/07/21 08:37:54;;;;;;;22.45;9.20;;;;;;;14.19;90.80;101235.91;5091722;28;20099;-56
2023/07/21 08:40:22;;;;;;;27.63;9.00;;;;;;;14.25;90.96;101240.41;5091596;28;20043;-56
2023/07/21 08:42:50;;;;;;;35.03;9.13;;;;;;;14.33;90.57;101240.16;5078265;28;20025;-55
2023/07/21 08:45:21;;;;;;;29.60;9.63;;;;;;;14.17;91.51;101229.94;5071570;28;20032;-56
2023/07/21 08:47:48;;;;;;;29.92;9.57;;;;;;;14.28;91.27;101231.91;5071669;28;20024;-56
2023/07/21 08:50:17;;;;;;;30.75;9.68;;;;;;;14.12;92.37;101222.50;5071606;28;20020;-56
2023/07/21 08:52:44;;;;;;;33.28;10.27;;;;;;;14.16;92.36;101225.59;5071252;28;20070;-56
2023/07/21 08:55:10;;;;;;;34.25;10.55;;;;;;;14.28;91.06;101231.91;5071488;28;20056;-56
2023/07/21 08:57:36;;;;;;;40.53;10.77;;;;;;;14.30;90.92;101229.81;5068924;28;20052;-56
2023/07/21 09:00:04;;;;;;;29.63;9.60;;;;;;;14.37;90.16;101227.06;5051547;28;20470;-56
2023/07/21 09:02:41;;;;;;;22.02;9.30;;;;;;;14.36;90.43;101228.91;5050959;28;20474;-55
2023/07/21 09:05:08;;;;;;;26.67;9.13;;;;;;;14.21;90.51;101228.44;5058786;28;20037;-56
2023/07/21 09:07:36;;;;;;;32.88;9.82;;;;;;;14.20;90.74;101224.09;5071301;28;20074;-55
2023/07/21 09:10:05;;;;;;;28.20;10.65;;;;;;;14.11;91.10;101214.66;5071140;28;20043;-56
2023/07/21 09:12:39;;;;;;;23.67;9.25;;;;;;;14.19;91.46;101212.50;5071044;28;20090;-56
2023/07/21 09:15:10;;;;;;;24.50;8.63;;;;;;;14.13;91.31;101218.78;5071356;28;20028;-56
2023/07/21 09:17:43;;;;;;;26.70;9.40;;;;;;;14.23;91.10;101219.09;5073577;28;20060;-55
2023/07/21 09:20:11;;;;;;;28.70;10.63;;;;;;;14.07;91.69;101208.06;5070767;28;20059;-56
2023/07/21 09:22:39;;;;;;;23.90;10.27;;;;;;;14.09;91.65;101217.56;5070700;28;20028;-55
2023/07/21 09:25:08;;;;;;;25.30;9.02;;;;;;;14.19;91.40;101212.50;5071202;28;20024;-55
2023/07/21 09:27:38;;;;;;;26.83;9.85;;;;;;;14.22;91.34;101206.69;5070909;28;20036;-56
2023/07/21 09:30:04;;;;;;;26.05;9.95;;;;;;;14.19;91.47;101198.22;5071224;28;20478;-55
2023/07/21 09:32:40;;;;;;;28.25;9.27;;;;;;;14.34;90.64;101198.72;5070870;28;20462;-56
2023/07/21 09:35:08;;;;;;;31.50;9.43;;;;;;;14.25;91.08;101202.72;5070138;28;20115;-56
2023/07/21 09:37:35;;;;;;;23.80;9.38;;;;;;;14.32;90.51;101194.56;5071117;28;20031;-56
2023/07/21 09:40:10;;;;;;;29.15;11.25;;;;;;;14.22;90.94;101201.31;5070871;28;20070;-56
2023/07/21 09:42:37;;;;;;;;;;;;;;;14.21;90.77;101198.81;5071581;28;20050;-52
2023/07/21 09:45:03;;;;;;;29.02;9.30;;;;;;;14.15;91.05;101195.13;5070861;28;20281;-55
2023/07/21 09:47:30;;;;;;;26.73;10.38;;;;;;;14.13;90.95;101193.72;5072368;28;20024;-55
2023/07/21 09:49:58;;;;;;;28.65;10.43;;;;;;;14.05;91.74;101199.38;5091202;28;20324;-55
2023/07/21 09:52:27;;;;;;;34.38;10.75;;;;;;;14.10;91.36;101196.84;5090867;28;20031;-55
2023/07/21 09:55:21;;;;;;;26.67;9.57;;;;;;;14.07;91.49;101195.44;5094707;28;20086;-55
2023/07/21 09:57:49;;;;;;;30.45;9.93;;;;;;;14.08;91.11;101193.56;5064718;28;20048;-55
2023/07/21 10:00:17;;;;;;;35.25;10.77;;;;;;;13.92;91.62;101189.53;5054444;28;20386;-56
2023/07/21 10:02:49;;;;;;;29.15;9.75;;;;;;;14.13;90.45;101183.78;5058811;28;20032;-56
2023/07/21 10:05:16;;;;;;;27.92;9.43;;;;;;;14.04;90.56;101176.19;5074392;28;20378;-55
2023/07/21 10:07:48;;;;;;;26.63;9.98;;;;;;;14.06;90.44;101176.81;5077976;28;20042;-56
2023/07/21 10:10:15;;;;;;;33.15;10.60;;;;;;;13.80;92.40;101175.97;5094633;28;20378;-55
2023/07/21 10:12:52;;;;;;;28.30;9.35;;;;;;;13.86;92.21;101168.91;5093994;28;20028;-55
2023/07/21 10:15:21;;;;;;;24.52;9.05;;;;;;;13.92;91.12;101173.41;5094518;28;20070;-55
2023/07/21 10:18:01;;;;;;;34.42;10.00;;;;;;;14.02;91.15;101178.28;5092083;28;20111;-55
2023/07/21 10:20:50;;;;;;;27.40;9.65;;;;;;;13.96;90.88;101175.44;5094219;28;20496;-53
2023/07/21 10:23:51;;;;;;;28.33;9.90;;;;;;;14.07;90.41;101170.38;5094399;28;20035;-51
2023/07/21 10:26:19;;;;;;;29.58;10.30;;;;;;;13.98;90.27;101173.34;5086640;28;20036;-49
2023/07/21 10:28:46;;;;;;;22.75;9.10;;;;;;;13.93;90.98;101170.47;5093975;28;20473;-50
2023/07/21 10:31:24;;;;;;;26.25;10.70;;;;;;;13.79;92.51;101168.13;5093867;28;20024;-51
2023/07/21 10:34:09;;;;;;;29.20;10.70;;;;;;;13.78;92.29;101166.50;5073393;28;20028;-50
2023/07/21 10:36:41;;;;;;;34.17;10.65;;;;;;;13.68;93.18;101167.78;5073475;28;20028;-48
2023/07/21 10:39:12;;;;;;;39.10;10.73;;;;;;;13.80;93.15;101159.03;5073735;28;20024;-50
2023/07/21 10:41:41;;;;;;;28.17;10.02;;;;;;;13.76;93.11;101161.31;5072707;28;20390;-49
2023/07/21 10:44:09;;;;;;;37.83;10.68;;;;;;;13.77;93.52;101160.28;5073316;28;20029;-52
2023/07/21 10:46:41;;;;;;;40.53;12.07;;;;;;;13.69;93.96;101158.69;5073382;28;20020;-56
2023/07/21 10:49:15;;;;;;;23.75;9.85;;;;;;;13.79;93.03;101160.88;5077312;23;20069;-56
2023/07/21 10:51:44;;;;;;;35.28;9.68;;;;;;;13.90;92.97;101160.19;5053197;28;20079;-56
2023/07/21 10:54:11;;;;;;;30.90;9.63;;;;;;;13.90;92.60;101165.56;5053216;28;20021;-56
2023/07/21 10:56:46;;;;;;;31.25;9.75;;;;;;;13.94;92.66;101161.38;5048947;28;20029;-56
2023/07/21 10:59:14;;;;;;;39.40;10.32;;;;;;;13.86;93.11;101158.13;5033219;28;20036;-56
2023/07/21 11:01:45;;;;;;;34.95;10.52;;;;;;;13.84;92.86;101169.13;5033215;28;20029;-56
2023/07/21 11:04:13;;;;;;;30.27;10.30;;;;;;;13.84;92.70;101166.44;5033720;28;20094;-56
2023/07/21 11:06:50;;;;;;;32.72;10.57;;;;;;;13.90;92.29;101162.03;5032795;28;20116;-56
2023/07/21 11:09:17;;;;;;;26.75;10.00;;;;;;;13.74;93.75;101160.72;5033164;28;20116;-56
2023/07/21 11:11:49;;;;;;;31.08;10.18;;;;;;;13.89;92.78;101163.09;5033292;28;20388;-55
2023/07/21 11:14:21;;;;;;;24.20;10.25;;;;;;;13.88;93.15;101161.41;5051190;28;20033;-56
2023/07/21 11:16:55;;;;;;;30.33;9.57;;;;;;;13.88;93.04;101159.59;5052365;28;20025;-56
2023/07/21 11:19:24;;;;;;;23.08;9.50;;;;;;;13.83;92.90;101153.22;5052938;28;20083;-56
2023/07/21 11:21:51;;;;;;;27.95;10.02;;;;;;;13.74;93.53;101155.34;5052901;28;20036;-55